createdAt,value
2018-10-11T00:01:28.633Z,17.90
2018-10-11T00:03:56.925Z,17.90
2018-10-11T00:06:25.174Z,17.90
2018-10-11T00:08:53.463Z,17.90
2018-10-11T00:11:21.731Z,17.80
2018-10-11T00:13:50.827Z,17.80
2018-10-11T00:16:20.437Z,17.80
2018-10-11T00:18:48.701Z,17.70
2018-10-11T00:21:17.736Z,17.70
2018-10-11T00:23:45.982Z,17.70
2018-10-11T00:26:14.257Z,17.70
2018-10-11T00:28:42.511Z,17.60
2018-10-11T00:31:11.548Z,17.60
2018-10-11T00:33:39.971Z,17.50
2018-10-11T00:36:08.191Z,17.60
2018-10-11T00:38:36.467Z,17.50
2018-10-11T00:41:04.719Z,17.50
2018-10-11T00:43:32.983Z,17.50
2018-10-11T00:46:02.305Z,17.00
2018-10-11T00:48:31.119Z,17.00
2018-10-11T00:50:59.369Z,16.90
2018-10-11T00:53:27.642Z,16.80
2018-10-11T00:55:55.896Z,16.70
2018-10-11T00:58:24.938Z,16.70
2018-10-11T01:00:53.185Z,16.60
2018-10-11T01:03:21.457Z,16.70
2018-10-11T01:05:49.722Z,16.70
2018-10-11T01:08:17.992Z,16.70
2018-10-11T01:10:46.276Z,16.60
2018-10-11T01:13:14.536Z,16.50
2018-10-11T01:15:43.566Z,16.40
2018-10-11T01:18:12.519Z,16.40
2018-10-11T01:20:41.564Z,16.30
2018-10-11T01:23:09.833Z,16.30
2018-10-11T01:25:38.098Z,16.20
2018-10-11T01:28:06.624Z,16.00
2018-10-11T01:30:35.556Z,16.00
2018-10-11T01:33:03.779Z,16.00
2018-10-11T01:35:32.052Z,16.10
2018-10-11T01:38:00.313Z,16.20
2018-10-11T01:40:28.584Z,16.20
2018-10-11T01:42:56.863Z,16.10
2018-10-11T01:45:25.430Z,16.10
2018-10-11T01:47:53.691Z,16.00
2018-10-11T01:50:22.355Z,15.90
2018-10-11T01:52:51.411Z,15.70
2018-10-11T01:55:19.667Z,15.70
2018-10-11T01:57:47.935Z,15.60
2018-10-11T02:00:16.250Z,15.60
2018-10-11T02:02:44.523Z,15.60
2018-10-11T02:05:12.820Z,15.50
2018-10-11T02:07:41.826Z,15.20
2018-10-11T02:10:10.111Z,15.20
2018-10-11T02:12:38.383Z,15.20
2018-10-11T02:15:06.668Z,15.20
2018-10-11T02:17:34.943Z,15.30
2018-10-11T02:20:03.196Z,15.30
2018-10-11T02:22:31.445Z,15.20
2018-10-11T02:24:59.713Z,15.10
2018-10-11T02:27:27.975Z,15.00
2018-10-11T02:29:56.247Z,15.00
2018-10-11T02:32:24.499Z,14.90
2018-10-11T02:34:53.075Z,14.90
2018-10-11T02:37:21.330Z,14.80
2018-10-11T02:39:49.583Z,14.60
2018-10-11T02:42:18.969Z,14.50
2018-10-11T02:44:47.195Z,14.50
2018-10-11T02:47:15.458Z,14.50
2018-10-11T02:49:43.726Z,14.50
2018-10-11T02:52:11.990Z,14.50
2018-10-11T02:54:41.023Z,14.50
2018-10-11T02:57:09.293Z,14.50
2018-10-11T02:59:37.556Z,14.50
2018-10-11T03:02:05.813Z,14.60
2018-10-11T03:04:35.178Z,14.70
2018-10-11T03:07:03.421Z,14.70
2018-10-11T03:09:31.684Z,14.80
2018-10-11T03:11:59.949Z,14.80
2018-10-11T03:14:28.230Z,14.70
2018-10-11T03:16:56.806Z,14.80
2018-10-11T03:19:25.059Z,14.90
2018-10-11T03:21:54.084Z,14.70
2018-10-11T03:24:22.505Z,14.70
2018-10-11T03:26:50.741Z,14.60
2018-10-11T03:29:19.026Z,14.50
2018-10-11T03:31:47.330Z,14.40
2018-10-11T03:34:15.607Z,14.40
2018-10-11T03:36:44.150Z,14.30
2018-10-11T03:39:12.415Z,14.40
2018-10-11T03:41:40.703Z,14.30
2018-10-11T03:44:09.007Z,14.40
2018-10-11T03:46:37.360Z,14.20
2018-10-11T03:49:05.530Z,14.10
2018-10-11T03:51:33.801Z,14.20
2018-10-11T03:54:02.063Z,14.20
2018-10-11T03:56:30.310Z,14.10
2018-10-11T03:58:58.578Z,14.10
2018-10-11T04:01:27.163Z,14.10
2018-10-11T04:03:55.405Z,14.10
2018-10-11T04:06:23.926Z,14.00
2018-10-11T04:08:52.204Z,14.00
2018-10-11T04:11:20.464Z,13.80
2018-10-11T04:13:48.740Z,13.60
2018-10-11T04:16:16.988Z,13.50
2018-10-11T04:18:45.251Z,13.50
2018-10-11T04:21:13.503Z,13.60
2018-10-11T04:23:42.123Z,13.60
2018-10-11T04:26:10.383Z,13.60
2018-10-11T04:28:38.638Z,13.70
2018-10-11T04:31:06.903Z,13.70
2018-10-11T04:33:35.171Z,13.80
2018-10-11T04:36:04.268Z,13.50
2018-10-11T04:38:32.473Z,13.50
2018-10-11T04:41:00.762Z,13.50
2018-10-11T04:43:28.984Z,13.60
2018-10-11T04:45:57.234Z,13.60
2018-10-11T04:48:25.531Z,13.50
2018-10-11T04:50:54.562Z,13.50
2018-10-11T04:53:24.020Z,13.50
2018-10-11T04:55:53.938Z,13.60
2018-10-11T04:58:23.210Z,13.60
2018-10-11T05:00:51.486Z,13.70
2018-10-11T05:03:19.740Z,13.80
2018-10-11T05:05:48.033Z,13.90
2018-10-11T05:08:16.272Z,13.90
2018-10-11T05:10:45.122Z,14.00
2018-10-11T05:13:14.365Z,14.20
2018-10-11T05:15:42.635Z,14.20
2018-10-11T05:18:10.896Z,14.40
2018-10-11T05:20:39.184Z,14.40
2018-10-11T05:23:07.431Z,14.50
2018-10-11T05:25:36.475Z,14.60
2018-10-11T05:28:04.759Z,14.60
2018-10-11T05:30:32.991Z,14.60
2018-10-11T05:33:01.344Z,14.60
2018-10-11T05:35:29.596Z,14.70
2018-10-11T05:37:57.872Z,14.80
2018-10-11T05:40:26.123Z,14.90
2018-10-11T05:42:54.424Z,15.00
2018-10-11T05:45:22.702Z,14.90
2018-10-11T05:47:50.953Z,14.90
2018-10-11T05:50:19.242Z,14.90
2018-10-11T05:52:48.267Z,14.90
2018-10-11T05:55:17.339Z,15.00
2018-10-11T05:57:45.597Z,14.90
2018-10-11T06:00:14.656Z,15.00
2018-10-11T06:02:42.899Z,14.90
2018-10-11T06:05:11.933Z,15.00
2018-10-11T06:07:40.486Z,15.00
2018-10-11T06:10:09.529Z,15.00
2018-10-11T06:12:37.780Z,15.00
2018-10-11T06:15:06.054Z,15.00
2018-10-11T06:17:34.721Z,15.10
2018-10-11T06:20:03.215Z,15.10
2018-10-11T06:22:31.494Z,15.20
2018-10-11T06:24:59.746Z,15.20
2018-10-11T06:27:28.006Z,15.20
2018-10-11T06:29:57.098Z,15.20
2018-10-11T06:32:26.114Z,15.30
2018-10-11T06:34:54.391Z,15.30
2018-10-11T06:37:22.658Z,15.40
2018-10-11T06:39:50.921Z,15.30
2018-10-11T06:42:20.086Z,15.20
2018-10-11T06:44:48.223Z,15.20
2018-10-11T06:47:16.497Z,15.30
2018-10-11T06:49:44.793Z,15.30
2018-10-11T06:52:13.035Z,15.30
2018-10-11T06:54:41.294Z,15.30
2018-10-11T06:57:10.339Z,15.50
2018-10-11T06:59:38.624Z,15.50
2018-10-11T07:02:06.897Z,15.50
2018-10-11T07:04:35.182Z,15.50
2018-10-11T07:07:03.491Z,15.40
2018-10-11T07:09:32.015Z,15.50
2018-10-11T07:12:00.255Z,15.60
2018-10-11T07:14:28.511Z,15.70
2018-10-11T07:16:57.849Z,15.70
2018-10-11T07:19:26.215Z,15.70
2018-10-11T07:21:54.363Z,15.80
2018-10-11T07:24:23.496Z,15.80
2018-10-11T07:26:51.792Z,15.80
2018-10-11T07:31:54.782Z,15.80
2018-10-11T07:34:23.223Z,15.80
2018-10-11T07:36:52.266Z,15.90
2018-10-11T07:39:20.586Z,15.90
2018-10-11T07:41:49.651Z,16.00
2018-10-11T07:44:18.054Z,16.00
2018-10-11T07:46:47.075Z,16.00
2018-10-11T07:49:15.327Z,16.00
2018-10-11T07:51:44.364Z,16.20
2018-10-11T07:54:12.651Z,16.10
2018-10-11T07:56:40.919Z,16.30
2018-10-11T07:59:09.164Z,16.40
2018-10-11T08:01:37.502Z,16.50
2018-10-11T08:04:05.747Z,16.60
2018-10-11T08:06:34.018Z,16.70
2018-10-11T08:09:02.365Z,16.70
2018-10-11T08:11:30.702Z,16.80
2018-10-11T08:13:58.917Z,16.90
2018-10-11T08:16:28.017Z,17.00
2018-10-11T08:18:56.345Z,17.00
2018-10-11T08:21:24.892Z,17.20
2018-10-11T08:23:53.335Z,17.40
2018-10-11T08:26:22.795Z,17.80
2018-10-11T08:28:50.665Z,17.70
2018-10-11T08:31:18.915Z,17.90
2018-10-11T08:33:47.196Z,18.10
2018-10-11T08:36:15.448Z,18.20
2018-10-11T08:38:43.871Z,18.30
2018-10-11T08:41:12.016Z,18.60
2018-10-11T08:43:40.334Z,18.70
2018-10-11T08:46:08.544Z,18.80
2018-10-11T08:48:37.386Z,18.90
2018-10-11T08:51:05.659Z,19.20
2018-10-11T08:53:33.994Z,19.20
2018-10-11T08:56:02.307Z,19.50
2018-10-11T08:58:30.490Z,19.50
2018-10-11T09:00:58.834Z,19.50
2018-10-11T09:03:27.201Z,19.50
2018-10-11T09:05:55.408Z,19.60
2018-10-11T09:08:23.705Z,19.60
2018-10-11T09:10:52.892Z,19.90
2018-10-11T09:13:21.187Z,19.80
2018-10-11T09:15:50.194Z,20.00
2018-10-11T09:18:18.474Z,20.00
2018-10-11T09:20:46.741Z,20.00
2018-10-11T09:23:15.826Z,20.10
2018-10-11T09:25:44.084Z,20.10
2018-10-11T09:28:12.379Z,20.20
2018-10-11T09:30:41.492Z,20.30
2018-10-11T09:33:09.695Z,20.40
2018-10-11T09:35:38.032Z,20.50
2018-10-11T09:38:06.291Z,20.60
2018-10-11T09:40:35.334Z,20.90
2018-10-11T09:43:03.620Z,20.90
2018-10-11T09:45:31.923Z,21.10
2018-10-11T09:48:00.784Z,21.10
2018-10-11T09:50:29.071Z,21.30
2018-10-11T09:52:57.338Z,21.50
2018-10-11T09:55:25.878Z,21.60
2018-10-11T09:57:54.138Z,21.60
2018-10-11T10:00:23.173Z,21.70
2018-10-11T10:02:51.454Z,21.70
2018-10-11T10:05:19.727Z,21.70
2018-10-11T10:07:48.050Z,21.70
2018-10-11T10:10:17.104Z,22.00
2018-10-11T10:12:45.398Z,22.00
2018-10-11T10:15:13.651Z,22.00
2018-10-11T10:17:41.907Z,22.10
2018-10-11T10:20:10.670Z,22.10
2018-10-11T10:22:39.395Z,22.20
2018-10-11T10:25:07.654Z,22.20
2018-10-11T10:27:35.922Z,22.40
2018-10-11T10:30:04.203Z,22.50
2018-10-11T10:32:32.546Z,22.60
2018-10-11T10:35:01.591Z,22.80
2018-10-11T10:37:29.982Z,22.80
2018-10-11T10:39:58.354Z,22.80
2018-10-11T10:42:27.382Z,22.90
2018-10-11T10:44:55.650Z,23.00
2018-10-11T10:47:23.923Z,23.20
2018-10-11T10:49:52.209Z,23.20
2018-10-11T10:52:21.304Z,23.40
2018-10-11T10:54:50.342Z,23.60
2018-10-11T10:57:18.587Z,23.60
2018-10-11T10:59:47.598Z,23.80
2018-10-11T11:02:15.872Z,23.80
2018-10-11T11:04:44.138Z,23.90
2018-10-11T11:07:12.423Z,24.00
2018-10-11T11:09:41.742Z,24.00
2018-10-11T11:12:09.979Z,24.00
2018-10-11T11:14:38.234Z,24.10
2018-10-11T11:17:06.523Z,24.20
2018-10-11T11:19:35.613Z,24.10
2018-10-11T11:22:04.644Z,24.00
2018-10-11T11:24:32.909Z,24.00
2018-10-11T11:27:01.199Z,23.80
2018-10-11T11:29:29.475Z,23.70
2018-10-11T11:31:57.742Z,23.70
2018-10-11T11:34:26.251Z,23.40
2018-10-11T11:36:54.528Z,23.20
2018-10-11T11:41:57.425Z,23.00
2018-10-11T11:44:25.941Z,23.00
2018-10-11T11:46:54.220Z,22.90
2018-10-11T11:49:22.469Z,22.90
2018-10-11T11:51:50.763Z,23.10
2018-10-11T11:54:19.781Z,23.20
2018-10-11T11:56:49.059Z,23.20
2018-10-11T11:59:18.131Z,23.30
2018-10-11T12:01:46.360Z,23.30
2018-10-11T12:04:14.614Z,23.20
2018-10-11T12:06:43.667Z,23.30
2018-10-11T12:09:11.943Z,23.30
2018-10-11T12:11:40.220Z,23.10
2018-10-11T12:14:08.735Z,22.90
2018-10-11T12:16:37.837Z,22.90
2018-10-11T12:19:06.863Z,22.90
2018-10-11T12:21:35.168Z,22.90
2018-10-11T12:24:03.463Z,22.90
2018-10-11T12:26:32.531Z,22.80
2018-10-11T12:29:00.878Z,22.80
2018-10-11T12:31:29.078Z,22.70
2018-10-11T12:33:57.342Z,22.70
2018-10-11T12:36:26.429Z,22.50
2018-10-11T12:38:55.589Z,22.50
2018-10-11T12:41:23.721Z,22.50
2018-10-11T12:43:52.212Z,22.50
2018-10-11T12:46:20.478Z,22.50
2018-10-11T12:48:48.754Z,22.40
2018-10-11T12:51:17.033Z,22.40
2018-10-11T12:53:48.532Z,22.40
2018-10-11T12:56:13.618Z,22.30
2018-10-11T12:58:41.874Z,22.30
2018-10-11T13:01:10.131Z,22.30
2018-10-11T13:03:38.391Z,22.20
2018-10-11T13:06:06.752Z,22.20
2018-10-11T13:08:35.856Z,22.20
2018-10-11T13:11:04.097Z,22.20
2018-10-11T13:13:32.395Z,22.20
2018-10-11T13:16:03.355Z,22.20
2018-10-11T13:18:28.922Z,22.10
2018-10-11T13:20:57.199Z,22.10
2018-10-11T13:23:25.454Z,22.10
2018-10-11T13:25:54.480Z,22.00
2018-10-11T13:28:22.763Z,22.10
2018-10-11T13:30:51.080Z,22.00
2018-10-11T13:33:19.334Z,22.00
2018-10-11T13:35:48.382Z,22.00
2018-10-11T13:38:16.632Z,22.00
2018-10-11T13:40:45.031Z,22.00
2018-10-11T13:43:13.969Z,21.90
2018-10-11T13:45:42.202Z,21.90
2018-10-11T13:48:10.541Z,21.90
2018-10-11T13:50:38.824Z,21.90
2018-10-11T13:53:07.132Z,21.90
2018-10-11T13:55:35.334Z,22.00
2018-10-11T13:58:03.620Z,22.20
2018-10-11T14:00:31.891Z,22.20
2018-10-11T14:03:00.136Z,22.20
2018-10-11T14:05:28.400Z,22.10
2018-10-11T14:07:57.423Z,22.00
2018-10-11T14:10:25.710Z,22.00
2018-10-11T14:12:53.966Z,22.00
2018-10-11T14:15:22.271Z,22.00
2018-10-11T14:17:50.612Z,22.00
2018-10-11T14:20:18.813Z,21.90
2018-10-11T14:22:47.069Z,21.90
2018-10-11T14:25:15.335Z,21.90
2018-10-11T14:27:43.646Z,21.90
2018-10-11T14:30:11.923Z,21.90
2018-10-11T14:32:40.196Z,21.80
2018-10-11T14:35:08.505Z,21.80
2018-10-11T14:37:36.751Z,21.80
2018-10-11T14:40:05.004Z,21.80
2018-10-11T14:42:33.308Z,21.70
2018-10-11T14:45:01.541Z,21.80
2018-10-11T14:47:29.818Z,21.80
2018-10-11T14:49:58.099Z,21.80
2018-10-11T14:52:26.359Z,21.80
2018-10-11T14:54:54.611Z,21.80
2018-10-11T14:57:23.727Z,21.80
2018-10-11T14:59:51.899Z,21.80
2018-10-11T15:02:20.217Z,21.70
2018-10-11T15:04:48.484Z,21.70
2018-10-11T15:07:16.742Z,21.70
2018-10-11T15:09:45.032Z,21.60
2018-10-11T15:12:13.280Z,21.60
2018-10-11T15:14:41.573Z,21.60
2018-10-11T15:17:09.903Z,21.50
2018-10-11T15:19:38.906Z,21.50
2018-10-11T15:22:07.167Z,21.60
2018-10-11T15:24:36.204Z,21.50
2018-10-11T15:27:04.474Z,21.50
2018-10-11T15:29:32.898Z,21.50
2018-10-11T15:32:01.894Z,21.50
2018-10-11T15:34:30.171Z,21.50
2018-10-11T15:36:58.410Z,21.50
2018-10-11T15:39:26.695Z,21.40
2018-10-11T15:41:54.943Z,21.40
2018-10-11T15:44:23.211Z,21.50
2018-10-11T15:46:51.691Z,21.50
2018-10-11T15:49:19.908Z,21.50
2018-10-11T15:51:48.540Z,21.30
2018-10-11T15:54:17.543Z,21.40
2018-10-11T15:56:45.826Z,21.40
2018-10-11T15:59:14.097Z,21.30
2018-10-11T16:01:42.379Z,21.10
2018-10-11T16:04:10.664Z,21.10
2018-10-11T16:06:38.913Z,21.10
2018-10-11T16:09:07.245Z,21.10
2018-10-11T16:11:35.474Z,21.10
2018-10-11T16:14:03.734Z,21.10
2018-10-11T16:16:32.025Z,21.10
2018-10-11T16:19:00.363Z,21.10
2018-10-11T16:21:28.971Z,21.10
2018-10-11T16:23:57.260Z,21.10
2018-10-11T16:26:25.563Z,21.00
2018-10-11T16:28:53.839Z,21.00
2018-10-11T16:31:22.099Z,21.00
2018-10-11T16:33:50.376Z,21.00
2018-10-11T16:36:18.646Z,21.00
2018-10-11T16:38:46.910Z,20.90
2018-10-11T16:41:15.181Z,20.80
2018-10-11T16:43:43.500Z,20.80
2018-10-11T16:46:12.866Z,20.80
2018-10-11T16:48:41.132Z,20.80
2018-10-11T16:51:09.402Z,20.80
2018-10-11T16:53:37.686Z,20.70
2018-10-11T16:56:05.950Z,20.60
2018-10-11T16:58:34.212Z,20.50
2018-10-11T17:01:03.341Z,20.40
2018-10-11T17:03:31.624Z,20.40
2018-10-11T17:05:59.910Z,20.40
2018-10-11T17:08:28.303Z,20.40
2018-10-11T17:10:56.582Z,20.40
2018-10-11T17:13:24.841Z,20.30
2018-10-11T17:15:53.124Z,20.30
2018-10-11T17:18:21.382Z,20.30
2018-10-11T17:20:49.702Z,20.30
2018-10-11T17:23:19.183Z,20.40
2018-10-11T17:25:47.449Z,20.30
2018-10-11T17:28:17.247Z,20.30
2018-10-11T17:30:45.865Z,20.30
2018-10-11T17:33:14.110Z,20.30
2018-10-11T17:35:42.419Z,20.30
2018-10-11T17:38:10.711Z,20.20
2018-10-11T17:40:39.775Z,20.20
2018-10-11T17:43:08.059Z,20.20
2018-10-11T17:45:36.326Z,20.20
2018-10-11T17:48:04.603Z,20.10
2018-10-11T17:50:32.848Z,20.10
2018-10-11T17:53:01.129Z,20.10
2018-10-11T17:55:30.178Z,20.10
2018-10-11T17:57:58.786Z,20.10
2018-10-11T18:00:27.047Z,20.10
2018-10-11T18:02:58.046Z,20.00
2018-10-11T18:05:27.247Z,20.00
2018-10-11T18:07:55.490Z,20.00
2018-10-11T18:10:23.795Z,20.00
2018-10-11T18:12:52.157Z,20.00
2018-10-11T18:15:20.450Z,19.90
2018-10-11T18:17:49.534Z,19.90
2018-10-11T18:20:17.826Z,19.90
2018-10-11T18:22:46.907Z,19.90
2018-10-11T18:25:15.197Z,19.90
2018-10-11T18:27:44.253Z,19.90
2018-10-11T18:30:12.525Z,19.80
2018-10-11T18:32:40.895Z,19.90
2018-10-11T18:35:09.186Z,19.90
2018-10-11T18:37:37.463Z,19.90
2018-10-11T18:40:05.793Z,19.90
2018-10-11T18:42:34.819Z,19.90
2018-10-11T18:45:03.150Z,19.90
2018-10-11T18:47:32.227Z,19.90
2018-10-11T18:50:00.515Z,19.80
2018-10-11T18:52:29.703Z,19.80
2018-10-11T18:54:57.992Z,19.80
2018-10-11T18:57:27.057Z,19.90
2018-10-11T18:59:55.352Z,19.90
2018-10-11T19:02:23.746Z,19.90
2018-10-11T19:04:52.022Z,19.90
2018-10-11T19:07:20.301Z,19.90
2018-10-11T19:09:48.819Z,19.80
2018-10-11T19:12:17.168Z,19.80
2018-10-11T19:14:46.209Z,19.60
2018-10-11T19:17:14.492Z,19.60
2018-10-11T19:19:42.800Z,19.50
2018-10-11T19:22:11.194Z,19.50
2018-10-11T19:24:39.471Z,19.60
2018-10-11T19:27:07.770Z,19.50
2018-10-11T19:29:36.131Z,19.50
2018-10-11T19:32:04.405Z,19.40
2018-10-11T19:34:32.852Z,19.40
2018-10-11T19:37:02.003Z,19.40
2018-10-11T19:39:30.464Z,19.40
2018-10-11T19:41:58.686Z,19.30
2018-10-11T19:44:26.998Z,19.30
2018-10-11T19:46:55.303Z,19.30
2018-10-11T19:49:24.355Z,19.20
2018-10-11T19:51:52.606Z,19.20
2018-10-11T19:54:21.650Z,19.00
2018-10-11T19:56:49.927Z,19.00
2018-10-11T19:59:18.261Z,19.00
2018-10-11T20:01:47.366Z,18.90
2018-10-11T20:04:15.665Z,18.90
2018-10-11T20:06:43.959Z,18.90
2018-10-11T20:09:12.232Z,18.90
2018-10-11T20:11:40.546Z,18.80
2018-10-11T20:14:09.611Z,18.70
2018-10-11T20:16:37.923Z,18.70
2018-10-11T20:19:06.204Z,18.70
2018-10-11T20:21:34.517Z,18.70
2018-10-11T20:24:02.782Z,18.70
2018-10-11T20:26:31.166Z,18.80
2018-10-11T20:29:00.161Z,18.70
2018-10-11T20:31:28.438Z,18.70
2018-10-11T20:33:56.723Z,18.70
2018-10-11T20:36:25.034Z,18.70
2018-10-11T20:38:53.290Z,18.60
2018-10-11T20:41:22.343Z,18.60
2018-10-11T20:43:50.642Z,18.60
2018-10-11T20:46:18.870Z,18.60
2018-10-11T20:48:47.916Z,18.70
2018-10-11T20:51:16.304Z,18.70
2018-10-11T20:53:44.446Z,18.60
2018-10-11T20:56:12.716Z,18.70
2018-10-11T20:58:40.991Z,18.70
2018-10-11T21:01:09.244Z,18.70
2018-10-11T21:03:38.282Z,18.70
2018-10-11T21:06:06.543Z,18.70
2018-10-11T21:08:34.910Z,18.70
2018-10-11T21:11:03.159Z,18.60
2018-10-11T21:13:32.483Z,18.70
2018-10-11T21:16:00.736Z,18.60
2018-10-11T21:18:29.798Z,18.60
2018-10-11T21:20:58.063Z,18.60
2018-10-11T21:23:26.375Z,18.60
2018-10-11T21:25:54.610Z,18.70
2018-10-11T21:28:23.428Z,18.70
2018-10-11T21:30:51.669Z,18.60
2018-10-11T21:33:19.950Z,18.70
2018-10-11T21:35:49.151Z,18.70
2018-10-11T21:38:17.481Z,18.70
2018-10-11T21:40:45.758Z,18.70
2018-10-11T21:43:14.010Z,18.70
2018-10-11T21:45:43.054Z,18.80
2018-10-11T21:48:11.339Z,18.70
2018-10-11T21:50:39.586Z,18.70
2018-10-11T21:53:07.871Z,18.70
2018-10-11T21:55:36.147Z,18.60
2018-10-11T21:58:04.406Z,18.60
2018-10-11T22:00:32.902Z,18.60
2018-10-11T22:03:01.167Z,18.70
2018-10-11T22:05:29.442Z,18.60
2018-10-11T22:07:57.692Z,18.50
2018-10-11T22:10:25.976Z,18.40
2018-10-11T22:12:54.991Z,18.40
2018-10-11T22:15:23.772Z,18.40
2018-10-11T22:17:52.063Z,18.30
2018-10-11T22:20:20.326Z,18.30
2018-10-11T22:22:48.618Z,18.40
2018-10-11T22:25:16.917Z,18.30
2018-10-11T22:27:45.170Z,18.30
2018-10-11T22:30:13.433Z,18.40
2018-10-11T22:32:41.858Z,18.30
2018-10-11T22:35:10.103Z,18.30
2018-10-11T22:37:38.392Z,18.30
2018-10-11T22:40:06.713Z,18.30
2018-10-11T22:42:36.463Z,18.20
2018-10-11T22:45:04.736Z,18.20
2018-10-11T22:47:32.998Z,18.20
2018-10-11T22:50:01.591Z,18.20
2018-10-11T22:52:29.990Z,18.20
2018-10-11T22:54:58.273Z,18.10
2018-10-11T22:57:26.580Z,18.00
2018-10-11T22:59:55.637Z,18.00
2018-10-11T23:02:23.910Z,17.90
2018-10-11T23:04:52.219Z,17.90
2018-10-11T23:07:21.257Z,17.90
2018-10-11T23:09:49.530Z,17.90
2018-10-11T23:12:17.813Z,17.90
2018-10-11T23:14:46.329Z,17.90
2018-10-11T23:17:14.364Z,17.90
2018-10-11T23:19:42.651Z,17.80
2018-10-11T23:22:11.780Z,17.70
2018-10-11T23:24:40.842Z,17.70
2018-10-11T23:27:09.129Z,17.70
2018-10-11T23:29:37.473Z,17.60
2018-10-11T23:32:05.710Z,17.60
2018-10-11T23:34:34.847Z,17.70
2018-10-11T23:37:03.106Z,17.70
2018-10-11T23:39:31.371Z,17.70
2018-10-11T23:41:59.646Z,17.70
2018-10-11T23:44:27.980Z,17.70
2018-10-11T23:46:56.287Z,17.60
2018-10-11T23:49:24.575Z,17.50
2018-10-11T23:51:52.900Z,17.40
2018-10-11T23:54:21.225Z,17.40
2018-10-11T23:56:49.502Z,17.40
2018-10-11T23:59:17.960Z,17.40
